Terminal Aerodrome Forecast
Issued by NWS

Home | Current Version | Previous Version | Text Only | Print | Product List | Glossary On
Versions: 1 2 3 4 5 6 7 8 9 10 11 12 13 14 15 16 17 18 19 20 21 22 23 24 25 26 27 28 29 30
105
FTAK31 PANC 311137
TAFAVD
TAF
PAVD 311137Z 3112/0112 VRB03KT P6SM FEW030 SCT040 SCT070
      TEMPO 3112/3116 BKN030 OVC070
     FM312100 25008KT P6SM FEW045 SCT200
     FM010000 27012KT P6SM FEW045 SCT100 BKN200
     FM010600 VRB06KT P6SM SCT100 BKN200
      AMD LTD TO CLD VIS AND WIND=

USA.gov is the U.S. government's official web portal to all federal, state and local government web resources and services.